This is the latest recevied weather packets stored in our database for station/object AA0PB. If no packets are shown the sender has not sent any weather packets the latest 10 day(s).
| Time | Temp. | Humidity | Pressure | Rain* | Wind** | Luminosity | Snow |
|---|---|---|---|---|---|---|---|
| 1778171746 | 12.78° C | 67% | 1021.6 hPa | 0 mm | - | 389 W/m² | - |
| 1778171439 | 12.22° C | 70% | 1021.6 hPa | 0 mm | - | 295 W/m² | - |
| 1778171139 | 12.78° C | 68% | 1021.4 hPa | 0 mm | - | 220 W/m² | - |
| 1778170836 | 12.22° C | 69% | 1021.6 hPa | 0 mm | - | 239 W/m² | - |
| 1778170532 | 12.78° C | 69% | 1021.5 hPa | 0 mm | - | 252 W/m² | - |
| 1778170229 | 12.22° C | 69% | 1021.7 hPa | 0 mm | - | 231 W/m² | - |
| 1778169925 | 11.67° C | 71% | 1021.6 hPa | 0 mm | - | 226 W/m² | - |
| 1778169622 | 11.67° C | 71% | 1021.5 hPa | 0 mm | - | 218 W/m² | - |
| 1778169317 | 11.67° C | 72% | 1021.7 hPa | 0 mm | - | 182 W/m² | - |
| 1778169015 | 11.11° C | 73% | 1021.7 hPa | 0 mm | - | 157 W/m² | - |
| 1778168711 | 11.11° C | 73% | 1021.6 hPa | 0 mm | - | 159 W/m² | - |
| 1778168408 | 11.11° C | 73% | 1021.7 hPa | 0 mm | - | 134 W/m² | - |
| 1778168105 | 11.11° C | 73% | 1021.8 hPa | 0 mm | - | 164 W/m² | - |
| 1778167801 | 11.11° C | 74% | 1021.6 hPa | 0 mm | - | 157 W/m² | - |
| 1778167497 | 10.56° C | 75% | 1021.8 hPa | 0 mm | - | 140 W/m² | - |
| 1778167194 | 10.56° C | 74% | 1021.7 hPa | 0 mm | - | 127 W/m² | - |
| 1778166890 | 10.56° C | 75% | 1021.6 hPa | 0 mm | - | 110 W/m² | - |
| 1778166587 | 10.56° C | 75% | 1021.7 hPa | 0 mm | - | 108 W/m² | - |
| 1778166284 | 10.56° C | 75% | 1021.5 hPa | 0 mm | - | 105 W/m² | - |
| 1778165980 | 10.56° C | 75% | 1021.9 hPa | 0 mm | - | 106 W/m² | - |
| 1778165676 | 10.56° C | 76% | 1021.6 hPa | 0 mm | - | 108 W/m² | - |
| 1778165373 | 10.56° C | 76% | 1021.7 hPa | 0 mm | - | 89 W/m² | - |
| 1778165070 | 10° C | 77% | 1021.7 hPa | 0 mm | - | 76 W/m² | - |
| 1778164767 | 10.56° C | 77% | 1021.8 hPa | 0 mm | - | 66 W/m² | - |
| 1778164465 | 10.56° C | 77% | 1021.6 hPa | 0 mm | - | 64 W/m² | - |
* Rain latest hour (hover to see other rain measurements)
** Current wind speed in m/s (hover to see current wind gust speed)